createdAt,value
2019-04-05T00:00:42.719Z,13.27
2019-04-05T00:03:09.098Z,12.00
2019-04-05T00:05:35.558Z,12.53
2019-04-05T00:08:02.335Z,11.40
2019-04-05T00:10:28.776Z,11.87
2019-04-05T00:12:55.369Z,12.77
2019-04-05T00:15:21.811Z,12.50
2019-04-05T00:17:48.287Z,14.97
2019-04-05T00:20:14.747Z,14.33
2019-04-05T00:22:41.136Z,14.93
2019-04-05T00:25:07.595Z,12.03
2019-04-05T00:27:34.063Z,13.13
2019-04-05T00:30:00.607Z,12.57
2019-04-05T00:32:27.128Z,12.37
2019-04-05T00:34:53.814Z,12.57
2019-04-05T00:37:20.343Z,13.73
2019-04-05T00:39:46.862Z,15.07
2019-04-05T00:42:13.311Z,12.43
2019-04-05T00:44:39.859Z,14.10
2019-04-05T00:47:06.377Z,13.97
2019-04-05T00:49:32.779Z,16.83
2019-04-05T00:51:59.243Z,14.53
2019-04-05T00:54:25.727Z,14.20
2019-04-05T00:56:52.292Z,12.83
2019-04-05T00:59:18.763Z,15.00
2019-04-05T01:01:45.327Z,15.53
2019-04-05T01:04:11.715Z,17.33
2019-04-05T01:06:38.104Z,15.27
2019-04-05T01:09:05.481Z,14.07
2019-04-05T01:11:31.831Z,15.93
2019-04-05T01:13:58.303Z,15.90
2019-04-05T01:16:24.860Z,13.93
2019-04-05T01:18:51.337Z,16.23
2019-04-05T01:21:18.491Z,15.27
2019-04-05T01:23:44.899Z,14.10
2019-04-05T01:26:11.944Z,16.13
2019-04-05T01:28:38.310Z,16.27
2019-04-05T01:31:04.786Z,16.03
2019-04-05T01:33:31.182Z,16.00
2019-04-05T01:35:57.650Z,17.50
2019-04-05T01:38:24.247Z,17.03
2019-04-05T01:40:50.875Z,16.67
2019-04-05T01:43:17.242Z,15.87
2019-04-05T01:45:53.500Z,15.90
2019-04-05T01:48:12.965Z,17.43
2019-04-05T01:50:39.620Z,16.97
2019-04-05T01:53:06.003Z,15.43
2019-04-05T01:55:32.505Z,17.90
2019-04-05T01:57:58.871Z,16.90
2019-04-05T02:00:25.315Z,17.17
2019-04-05T02:02:52.167Z,19.40
2019-04-05T02:05:18.647Z,19.27
2019-04-05T02:07:45.101Z,16.30
2019-04-05T02:10:11.827Z,14.43
2019-04-05T02:12:38.789Z,15.67
2019-04-05T02:15:06.872Z,17.37
2019-04-05T02:17:35.769Z,17.43
2019-04-05T02:20:02.296Z,16.93
2019-04-05T02:22:28.743Z,17.83
2019-04-05T02:24:55.223Z,17.80
2019-04-05T02:27:21.683Z,19.43
2019-04-05T02:29:48.144Z,17.57
2019-04-05T02:32:14.645Z,18.17
2019-04-05T02:34:41.219Z,20.00
2019-04-05T02:37:07.665Z,18.33
2019-04-05T02:39:34.046Z,17.40
2019-04-05T02:42:00.708Z,18.70
2019-04-05T02:44:27.774Z,18.73
2019-04-05T02:46:54.437Z,19.90
2019-04-05T02:49:22.822Z,20.47
2019-04-05T02:51:49.891Z,19.67
2019-04-05T02:54:16.480Z,18.73
2019-04-05T02:56:43.268Z,17.67
2019-04-05T02:59:10.332Z,18.83
2019-04-05T03:01:37.191Z,19.73
2019-04-05T03:04:03.669Z,17.90
2019-04-05T03:06:30.516Z,18.93
2019-04-05T03:08:57.273Z,19.60
2019-04-05T03:11:25.641Z,18.93
2019-04-05T03:13:54.048Z,18.17
2019-04-05T03:16:38.586Z,18.27
2019-04-05T03:18:52.483Z,19.10
2019-04-05T03:21:19.741Z,19.73
2019-04-05T03:23:47.295Z,19.33
2019-04-05T03:26:15.685Z,23.00
2019-04-05T03:28:43.457Z,18.40
2019-04-05T03:31:10.842Z,19.40
2019-04-05T03:33:37.507Z,21.20
2019-04-05T03:36:03.996Z,19.77
2019-04-05T03:38:30.526Z,21.93
2019-04-05T03:40:57.339Z,23.27
2019-04-05T03:43:23.905Z,20.93
2019-04-05T03:45:50.589Z,21.20
2019-04-05T03:48:17.558Z,21.80
2019-04-05T03:50:45.218Z,22.27
2019-04-05T03:53:12.294Z,24.13
2019-04-05T03:55:38.777Z,22.70
2019-04-05T03:58:05.312Z,24.13
2019-04-05T04:00:31.915Z,23.63
2019-04-05T04:02:58.373Z,25.73
2019-04-05T04:05:24.835Z,26.50
2019-04-05T04:07:51.191Z,26.73
2019-04-05T04:10:17.694Z,23.67
2019-04-05T04:12:44.235Z,24.50
2019-04-05T04:15:13.946Z,26.97
2019-04-05T04:17:40.395Z,26.37
2019-04-05T04:20:08.870Z,27.10
2019-04-05T04:22:35.368Z,25.37
2019-04-05T04:25:02.129Z,25.07
2019-04-05T04:27:28.651Z,25.83
2019-04-05T04:29:55.471Z,25.23
2019-04-05T04:32:21.971Z,26.67
2019-04-05T04:34:49.066Z,29.50
2019-04-05T04:37:15.737Z,28.40
2019-04-05T04:39:42.879Z,27.93
2019-04-05T04:42:10.276Z,27.70
2019-04-05T04:44:36.927Z,29.40
2019-04-05T04:47:03.290Z,36.00
2019-04-05T04:49:30.039Z,32.70
2019-04-05T04:51:56.716Z,33.93
2019-04-05T04:54:23.279Z,29.73
2019-04-05T04:56:49.861Z,36.20
2019-04-05T04:59:16.324Z,36.97
2019-04-05T05:01:43.398Z,34.33
2019-04-05T05:04:10.044Z,37.83
2019-04-05T05:06:36.736Z,36.83
2019-04-05T05:09:05.608Z,37.03
2019-04-05T05:11:32.183Z,36.27
2019-04-05T05:13:58.748Z,33.43
2019-04-05T05:16:25.093Z,38.90
2019-04-05T05:18:51.675Z,38.87
2019-04-05T05:21:18.361Z,37.70
2019-04-05T05:23:45.135Z,41.13
2019-04-05T05:26:11.825Z,44.13
2019-04-05T05:28:38.596Z,48.00
2019-04-05T05:31:05.161Z,41.73
2019-04-05T05:33:31.660Z,42.57
2019-04-05T05:35:58.804Z,41.60
2019-04-05T05:38:25.462Z,42.93
2019-04-05T05:40:51.809Z,41.13
2019-04-05T05:43:18.182Z,45.67
2019-04-05T05:45:44.637Z,38.30
2019-04-05T05:48:11.316Z,37.20
2019-04-05T05:50:37.699Z,44.03
2019-04-05T05:53:04.195Z,46.50
2019-04-05T05:55:30.747Z,39.83
2019-04-05T05:57:58.737Z,42.00
2019-04-05T06:00:25.565Z,48.30
2019-04-05T06:02:51.939Z,38.40
2019-04-05T06:05:18.287Z,42.37
2019-04-05T06:07:44.751Z,39.47
2019-04-05T06:10:11.211Z,42.67
2019-04-05T06:12:38.090Z,41.67
2019-04-05T06:15:04.790Z,42.40
2019-04-05T06:17:31.351Z,39.40
2019-04-05T06:19:57.830Z,36.87
2019-04-05T06:22:24.306Z,40.57
2019-04-05T06:24:50.895Z,36.93
2019-04-05T06:27:17.473Z,46.77
2019-04-05T06:29:43.928Z,32.10
2019-04-05T06:32:10.430Z,34.87
2019-04-05T06:34:36.794Z,33.50
2019-04-05T06:37:03.188Z,33.57
2019-04-05T06:39:29.664Z,33.30
2019-04-05T06:41:56.019Z,39.53
2019-04-05T06:44:22.491Z,29.07
2019-04-05T06:46:48.960Z,29.97
2019-04-05T06:49:15.461Z,30.70
2019-04-05T06:51:41.922Z,30.90
2019-04-05T06:54:08.303Z,29.80
2019-04-05T06:56:34.668Z,27.30
2019-04-05T06:59:01.669Z,26.90
2019-04-05T07:01:28.229Z,27.97
2019-04-05T07:03:55.326Z,26.67
2019-04-05T07:06:21.868Z,29.47
2019-04-05T07:08:54.080Z,27.90
2019-04-05T07:11:16.823Z,25.87
2019-04-05T07:13:43.409Z,27.03
2019-04-05T07:16:11.227Z,26.13
2019-04-05T07:18:37.877Z,28.97
2019-04-05T07:21:04.443Z,28.80
2019-04-05T07:23:30.899Z,27.17
2019-04-05T07:25:57.465Z,25.20
2019-04-05T07:28:25.256Z,23.10
2019-04-05T07:30:51.838Z,24.33
2019-04-05T07:33:18.393Z,27.83
2019-04-05T07:35:44.946Z,24.47
2019-04-05T07:38:11.416Z,23.17
2019-04-05T07:40:37.883Z,25.87
2019-04-05T07:43:04.268Z,22.20
2019-04-05T07:45:30.724Z,20.43
2019-04-05T07:47:57.100Z,20.80
2019-04-05T07:50:23.659Z,22.00
2019-04-05T07:52:50.031Z,21.07
2019-04-05T07:55:16.494Z,21.10
2019-04-05T07:57:42.950Z,21.83
2019-04-05T08:00:11.331Z,23.63
2019-04-05T08:02:37.889Z,24.60
2019-04-05T08:05:06.466Z,20.83
2019-04-05T08:07:34.823Z,21.93
2019-04-05T08:10:03.118Z,24.20
2019-04-05T08:12:29.862Z,22.30
2019-04-05T08:14:56.240Z,20.30
2019-04-05T08:17:22.607Z,22.67
2019-04-05T08:19:49.310Z,22.53
2019-04-05T08:22:15.671Z,21.97
2019-04-05T08:24:42.258Z,23.37
2019-04-05T08:27:08.715Z,20.73
2019-04-05T08:29:35.079Z,23.80
2019-04-05T08:32:13.615Z,22.00
2019-04-05T08:34:29.953Z,22.13
2019-04-05T08:36:56.321Z,21.43
2019-04-05T08:39:22.791Z,21.07
2019-04-05T08:41:49.348Z,19.10
2019-04-05T08:44:15.837Z,21.33
2019-04-05T08:46:42.279Z,22.53
2019-04-05T08:49:10.888Z,19.47
2019-04-05T08:51:37.123Z,22.47
2019-04-05T08:54:03.727Z,22.67
2019-04-05T08:56:30.079Z,18.63
2019-04-05T08:58:56.545Z,24.60
2019-04-05T09:01:22.932Z,21.13
2019-04-05T09:03:49.560Z,23.30
2019-04-05T09:06:16.267Z,20.57
2019-04-05T09:08:42.641Z,20.10
2019-04-05T09:11:09.243Z,23.83
2019-04-05T09:13:35.607Z,19.03
2019-04-05T09:16:02.178Z,20.03
2019-04-05T09:18:28.639Z,20.97
2019-04-05T09:20:55.046Z,19.80
2019-04-05T09:23:21.387Z,21.17
2019-04-05T09:25:47.963Z,19.90
2019-04-05T09:28:14.411Z,20.27
2019-04-05T09:30:41.012Z,19.80
2019-04-05T09:33:07.496Z,18.60
2019-04-05T09:35:33.878Z,20.47
2019-04-05T09:38:00.235Z,22.60
2019-04-05T09:40:26.633Z,20.03
2019-04-05T09:42:52.992Z,17.93
2019-04-05T09:45:19.366Z,20.63
2019-04-05T09:47:45.893Z,21.20
2019-04-05T09:50:12.487Z,18.93
2019-04-05T09:52:40.142Z,22.37
2019-04-05T09:55:06.813Z,18.97
2019-04-05T09:57:33.377Z,18.47
2019-04-05T09:59:59.751Z,21.40
2019-04-05T10:02:26.119Z,17.67
2019-04-05T10:04:52.472Z,21.20
2019-04-05T10:07:18.977Z,20.63
2019-04-05T10:09:45.435Z,19.63
2019-04-05T10:12:11.811Z,18.97
2019-04-05T10:14:38.287Z,18.67
2019-04-05T10:17:04.665Z,21.07
2019-04-05T10:19:31.003Z,16.03
2019-04-05T10:21:57.395Z,33.97
2019-04-05T10:24:23.812Z,16.37
2019-04-05T10:26:50.303Z,17.03
2019-04-05T10:29:16.755Z,19.40
2019-04-05T10:31:43.194Z,19.87
2019-04-05T10:34:09.742Z,17.27
2019-04-05T10:36:36.219Z,18.10
2019-04-05T10:39:04.679Z,18.80
2019-04-05T10:41:31.064Z,18.93
2019-04-05T10:43:58.525Z,24.37
2019-04-05T10:46:25.104Z,24.37
2019-04-05T10:48:51.563Z,20.40
2019-04-05T10:51:17.903Z,21.33
2019-04-05T10:53:44.433Z,23.43
2019-04-05T10:56:10.772Z,22.13
2019-04-05T10:58:37.142Z,22.30
2019-04-05T11:01:03.608Z,21.93
2019-04-05T11:03:29.971Z,19.73
2019-04-05T11:05:56.336Z,23.70
2019-04-05T11:08:22.720Z,24.63
2019-04-05T11:10:49.167Z,23.50
2019-04-05T11:13:15.547Z,23.33
2019-04-05T11:15:42.023Z,23.27
2019-04-05T11:18:09.273Z,23.70
2019-04-05T11:20:35.660Z,24.10
2019-04-05T11:23:02.147Z,23.17
2019-04-05T11:25:28.605Z,22.40
2019-04-05T11:27:55.086Z,21.90
2019-04-05T11:30:35.560Z,25.27
2019-04-05T11:33:01.943Z,20.53
2019-04-05T11:35:28.402Z,24.83
2019-04-05T11:37:54.920Z,22.77
2019-04-05T11:40:24.051Z,24.70
2019-04-05T11:42:49.736Z,22.70
2019-04-05T11:45:16.192Z,24.80
2019-04-05T11:47:42.746Z,20.50
2019-04-05T11:50:09.815Z,23.80
2019-04-05T11:52:36.385Z,22.00
2019-04-05T11:55:04.706Z,19.60
2019-04-05T11:57:31.324Z,20.47
2019-04-05T11:59:57.787Z,19.60
2019-04-05T12:02:26.040Z,23.53
2019-04-05T12:04:54.780Z,19.67
2019-04-05T12:07:24.037Z,19.57
2019-04-05T12:09:49.525Z,19.47
2019-04-05T12:12:15.978Z,21.60
2019-04-05T12:14:42.439Z,20.43
2019-04-05T12:17:09.767Z,18.57
2019-04-05T12:19:38.120Z,17.47
2019-04-05T12:22:05.424Z,20.77
2019-04-05T12:24:32.667Z,18.37
2019-04-05T12:26:59.729Z,21.57
2019-04-05T12:29:26.105Z,19.63
2019-04-05T12:31:53.534Z,18.90
2019-04-05T12:34:22.233Z,18.63
2019-04-05T12:36:48.331Z,16.73
2019-04-05T12:39:14.699Z,19.60
2019-04-05T12:41:42.523Z,24.17
2019-04-05T12:44:09.435Z,17.73
2019-04-05T12:46:35.875Z,22.07
2019-04-05T12:49:02.289Z,17.67
2019-04-05T12:51:28.734Z,19.27
2019-04-05T12:53:56.719Z,19.00
2019-04-05T12:56:24.348Z,19.37
2019-04-05T12:58:53.636Z,20.40
2019-04-05T13:01:20.216Z,21.73
2019-04-05T13:03:46.570Z,18.07
2019-04-05T13:06:13.038Z,17.67
2019-04-05T13:08:39.390Z,20.03
2019-04-05T13:11:05.988Z,18.10
2019-04-05T13:13:32.460Z,19.47
2019-04-05T13:15:59.553Z,20.73
2019-04-05T13:18:26.012Z,21.37
2019-04-05T13:20:52.422Z,17.83
2019-04-05T13:23:18.947Z,22.47
2019-04-05T13:25:45.334Z,21.13
2019-04-05T13:28:13.521Z,19.20
2019-04-05T13:30:40.155Z,19.77
2019-04-05T13:33:06.764Z,19.70
2019-04-05T13:35:33.341Z,19.87
2019-04-05T13:38:00.749Z,22.77
2019-04-05T13:40:29.579Z,18.47
2019-04-05T13:42:56.271Z,18.30
2019-04-05T13:45:22.742Z,18.57
2019-04-05T13:47:49.099Z,19.80
2019-04-05T13:50:15.562Z,19.43
2019-04-05T13:52:42.342Z,20.83
2019-04-05T13:55:11.300Z,19.40
2019-04-05T13:57:40.121Z,21.30
2019-04-05T14:00:06.966Z,19.17
2019-04-05T14:02:33.306Z,20.77
2019-04-05T14:04:59.816Z,20.10
2019-04-05T14:07:26.166Z,24.98
2019-04-05T14:09:52.536Z,21.02
2019-04-05T14:12:19.098Z,23.22
2019-04-05T14:14:48.006Z,19.73
2019-04-05T14:17:16.580Z,21.75
2019-04-05T14:19:43.010Z,18.45
2019-04-05T14:22:09.501Z,19.07
2019-04-05T14:24:35.830Z,19.95
2019-04-05T14:27:03.638Z,19.50
2019-04-05T14:29:33.204Z,18.02
2019-04-05T14:32:00.969Z,19.95
2019-04-05T14:34:26.967Z,18.83
2019-04-05T14:36:53.335Z,19.77
2019-04-05T14:39:19.788Z,20.43
2019-04-05T14:41:46.164Z,19.50
2019-04-05T14:44:14.748Z,20.23
2019-04-05T14:46:40.895Z,19.85
2019-04-05T14:49:07.343Z,20.82
2019-04-05T14:51:33.712Z,18.92
2019-04-05T14:54:01.820Z,22.52
2019-04-05T14:56:29.258Z,20.17
2019-04-05T14:58:56.091Z,19.82
2019-04-05T15:01:22.555Z,18.52
2019-04-05T15:03:49.029Z,17.42
2019-04-05T15:06:15.593Z,17.95
2019-04-05T15:08:42.043Z,21.25
2019-04-05T15:11:10.914Z,19.50
2019-04-05T15:13:36.863Z,21.75
2019-04-05T15:16:03.338Z,18.07
2019-04-05T15:18:29.702Z,21.50
2019-04-05T15:20:56.084Z,19.87
2019-04-05T15:23:22.447Z,17.33
2019-04-05T15:25:49.899Z,20.07
2019-04-05T15:28:16.852Z,17.73
2019-04-05T15:30:43.219Z,16.67
2019-04-05T15:33:09.660Z,20.27
2019-04-05T15:35:36.122Z,18.83
2019-04-05T15:38:02.513Z,19.43
2019-04-05T15:40:31.066Z,19.20
2019-04-05T15:42:57.358Z,19.05
2019-04-05T15:45:23.814Z,23.70
2019-04-05T15:47:52.532Z,22.93
2019-04-05T15:50:19.652Z,20.57
2019-04-05T15:52:46.723Z,18.35
2019-04-05T15:55:13.192Z,19.73
2019-04-05T15:57:39.682Z,19.12
2019-04-05T16:00:08.130Z,19.57
2019-04-05T16:02:35.744Z,21.42
2019-04-05T16:05:03.813Z,21.33
2019-04-05T16:07:30.310Z,17.37
2019-04-05T16:09:56.889Z,19.17
2019-04-05T16:12:23.354Z,18.67
2019-04-05T16:14:49.834Z,20.20
2019-04-05T16:17:16.204Z,22.82
2019-04-05T16:19:42.835Z,20.77
2019-04-05T16:22:09.411Z,20.08
2019-04-05T16:24:35.767Z,18.65
2019-04-05T16:27:02.250Z,20.30
2019-04-05T16:29:28.616Z,18.15
2019-04-05T16:31:55.124Z,20.90
2019-04-05T16:34:21.600Z,21.47
2019-04-05T16:36:47.999Z,20.57
2019-04-05T16:39:16.351Z,18.93
2019-04-05T16:41:42.733Z,20.53
2019-04-05T16:44:09.285Z,20.37
2019-04-05T16:46:35.710Z,20.77
2019-04-05T16:49:02.434Z,21.40
2019-04-05T16:51:28.904Z,20.20
2019-04-05T16:53:57.189Z,22.40
2019-04-05T16:56:23.643Z,18.53
2019-04-05T16:58:50.010Z,20.07
2019-04-05T17:01:26.410Z,18.97
2019-04-05T17:03:44.751Z,21.67
2019-04-05T17:06:11.143Z,17.67
2019-04-05T17:08:37.603Z,21.40
2019-04-05T17:11:04.055Z,20.10
2019-04-05T17:13:30.423Z,21.07
2019-04-05T17:15:56.900Z,19.43
2019-04-05T17:18:23.253Z,21.63
2019-04-05T17:20:50.811Z,20.27
2019-04-05T17:23:17.192Z,20.10
2019-04-05T17:25:43.635Z,20.63
2019-04-05T17:28:10.090Z,17.40
2019-04-05T17:30:36.520Z,22.20
2019-04-05T17:33:03.083Z,19.53
2019-04-05T17:35:29.514Z,18.10
2019-04-05T17:37:56.013Z,17.87
2019-04-05T17:40:22.388Z,18.17
2019-04-05T17:42:48.791Z,17.40
2019-04-05T17:45:15.199Z,19.93
2019-04-05T17:47:41.685Z,15.93
2019-04-05T17:50:10.697Z,18.43
2019-04-05T17:52:36.694Z,22.70
2019-04-05T17:55:03.399Z,18.27
2019-04-05T17:57:30.156Z,17.90
2019-04-05T17:59:56.842Z,19.90
2019-04-05T18:02:23.253Z,18.03
2019-04-05T18:04:49.696Z,22.10
2019-04-05T18:07:16.173Z,21.77
2019-04-05T18:09:42.663Z,18.83
2019-04-05T18:12:09.054Z,22.30
2019-04-05T18:14:35.529Z,21.23
2019-04-05T18:17:02.046Z,23.90
2019-04-05T18:19:28.558Z,21.33
2019-04-05T18:21:54.962Z,22.07
2019-04-05T18:24:21.376Z,21.10
2019-04-05T18:26:47.779Z,23.10
2019-04-05T18:29:14.178Z,22.50
2019-04-05T18:31:40.617Z,23.40
2019-04-05T18:34:07.015Z,22.10
2019-04-05T18:36:33.405Z,36.03
2019-04-05T18:38:59.803Z,29.03
2019-04-05T18:41:26.179Z,26.03
2019-04-05T18:43:52.612Z,26.67
2019-04-05T18:46:18.999Z,37.37
2019-04-05T18:48:45.380Z,33.13
2019-04-05T18:51:11.951Z,40.07
2019-04-05T18:53:38.437Z,30.80
2019-04-05T18:56:04.889Z,24.70
2019-04-05T18:58:31.401Z,25.10
2019-04-05T19:00:57.838Z,30.93
2019-04-05T19:03:24.207Z,29.13
2019-04-05T19:05:50.608Z,28.73
2019-04-05T19:08:17.075Z,28.17
2019-04-05T19:10:43.528Z,28.10
2019-04-05T19:13:09.961Z,27.63
2019-04-05T19:15:36.442Z,32.07
2019-04-05T19:18:03.064Z,27.17
2019-04-05T19:20:32.492Z,29.73
2019-04-05T19:22:58.988Z,32.93
2019-04-05T19:25:25.356Z,29.63
2019-04-05T19:27:51.759Z,31.30
2019-04-05T19:50:05.781Z,36.43
2019-04-05T19:52:32.345Z,33.20
2019-04-05T19:54:58.900Z,33.73
2019-04-05T19:57:25.256Z,34.10
2019-04-05T19:59:51.690Z,32.90
2019-04-05T20:02:18.048Z,35.77
2019-04-05T20:04:44.531Z,34.07
2019-04-05T20:07:10.883Z,29.73
2019-04-05T20:09:37.358Z,33.97
2019-04-05T20:12:03.926Z,35.23
2019-04-05T20:14:30.302Z,32.17
2019-04-05T20:16:56.654Z,32.10
2019-04-05T20:19:23.131Z,35.60
2019-04-05T20:21:49.570Z,36.07
2019-04-05T20:24:15.954Z,32.20
2019-04-05T20:26:42.322Z,32.33
2019-04-05T20:29:08.903Z,33.67
2019-04-05T20:31:35.363Z,33.33
2019-04-05T20:34:01.847Z,33.90
2019-04-05T20:36:28.483Z,30.67
2019-04-05T20:38:55.116Z,29.77
2019-04-05T20:41:21.611Z,32.27
2019-04-05T20:43:48.056Z,28.17
2019-04-05T20:46:14.522Z,30.37
2019-04-05T20:48:40.918Z,28.23
2019-04-05T20:51:07.529Z,24.43
2019-04-05T20:53:33.887Z,29.63
2019-04-05T20:56:00.359Z,33.57
2019-04-05T20:58:26.723Z,36.73
2019-04-05T21:00:53.207Z,32.27
2019-04-05T21:03:19.654Z,33.03
2019-04-05T21:05:46.026Z,30.80
2019-04-05T21:08:12.415Z,31.83
2019-04-05T21:10:38.984Z,34.67
2019-04-05T21:13:05.435Z,33.30
2019-04-05T21:15:32.014Z,36.50
2019-04-05T21:17:58.594Z,32.57
2019-04-05T21:20:25.089Z,28.67
2019-04-05T21:22:51.547Z,31.70
2019-04-05T21:25:17.950Z,32.67
2019-04-05T21:27:44.363Z,30.00
2019-04-05T21:30:10.940Z,34.10
2019-04-05T21:32:37.530Z,31.80
2019-04-05T21:35:05.257Z,29.53
2019-04-05T21:37:31.619Z,30.13
2019-04-05T21:39:57.987Z,26.93
2019-04-05T21:42:24.379Z,29.10
2019-04-05T21:44:50.855Z,33.07
2019-04-05T21:47:17.407Z,33.63
2019-04-05T21:49:43.784Z,30.13
2019-04-05T21:52:10.259Z,33.27
2019-04-05T21:54:47.165Z,31.90
2019-04-05T21:57:05.178Z,30.57
2019-04-05T21:59:31.532Z,35.83
2019-04-05T22:01:58.094Z,38.67
2019-04-05T22:04:24.555Z,34.10
2019-04-05T22:06:50.974Z,34.37
2019-04-05T22:09:17.431Z,35.00
2019-04-05T22:11:44.052Z,29.90
2019-04-05T22:14:10.563Z,36.33
2019-04-05T22:16:37.034Z,32.83
2019-04-05T22:19:03.519Z,35.77
2019-04-05T22:21:30.094Z,34.50
2019-04-05T22:23:56.551Z,33.90
2019-04-05T22:26:23.016Z,33.63
2019-04-05T22:28:49.505Z,35.87
2019-04-05T22:31:16.057Z,30.10
2019-04-05T22:33:42.437Z,36.07
2019-04-05T22:36:08.818Z,34.70
2019-04-05T22:38:35.182Z,38.70
2019-04-05T22:41:01.667Z,35.73
2019-04-05T22:43:28.019Z,36.70
2019-04-05T22:45:54.430Z,36.13
2019-04-05T22:48:20.933Z,35.77
2019-04-05T22:50:47.414Z,35.10
2019-04-05T22:53:13.804Z,31.60
2019-04-05T22:55:40.309Z,37.63
2019-04-05T22:58:06.660Z,38.77
2019-04-05T23:00:33.123Z,35.77
2019-04-05T23:02:59.598Z,41.00
2019-04-05T23:05:26.013Z,36.63
2019-04-05T23:07:52.511Z,34.20
2019-04-05T23:10:18.911Z,34.47
2019-04-05T23:12:45.415Z,34.43
2019-04-05T23:15:12.186Z,40.03
2019-04-05T23:17:38.573Z,34.87
2019-04-05T23:20:05.435Z,43.47
2019-04-05T23:22:31.853Z,35.00
2019-04-05T23:24:58.481Z,32.33
2019-04-05T23:27:25.075Z,31.63
2019-04-05T23:29:51.437Z,32.97
2019-04-05T23:32:17.926Z,32.27
2019-04-05T23:34:44.487Z,37.13
2019-04-05T23:37:10.968Z,36.10
2019-04-05T23:39:37.535Z,38.00
2019-04-05T23:42:04.042Z,39.47
2019-04-05T23:44:30.526Z,41.67
2019-04-05T23:46:57.011Z,39.57
2019-04-05T23:49:23.523Z,40.63
2019-04-05T23:51:49.990Z,37.93
2019-04-05T23:54:16.472Z,39.60
2019-04-05T23:56:42.883Z,40.50
2019-04-05T23:59:09.330Z,40.87
